Time;durP1;ratioP1;P1;durP2;ratioP2;P2;SDS_P1;SDS_P2;PMS_P1;PMS_P2;Temp;Humidity;BMP_temperature;BMP_pressure;BME280_temperature;BME280_humidity;BME280_pressure;Samples;Min_cycle;Max_cycle;Signal;HPM_P1;HPM_P2
2023/02/09 00:01:02;;;;;;;54.25;27.63;;;-1.30;99.90;;;;;;4985812;28;20657;-72
2023/02/09 00:03:28;;;;;;;58.63;28.23;;;-1.30;99.90;;;;;;5034998;28;20530;-72
2023/02/09 00:05:54;;;;;;;58.13;29.08;;;-1.30;99.90;;;;;;5025180;28;20124;-72
2023/02/09 00:08:20;;;;;;;60.05;27.30;;;-1.20;99.90;;;;;;5002501;28;20129;-72
2023/02/09 00:10:45;;;;;;;60.20;27.08;;;-1.20;99.90;;;;;;5007980;28;20111;-72
2023/02/09 00:13:23;;;;;;;59.33;28.13;;;-1.20;99.90;;;;;;5023735;28;20184;-72
2023/02/09 00:16:00;;;;;;;59.30;29.05;;;-1.30;99.90;;;;;;5024898;28;20049;-72
2023/02/09 00:18:27;;;;;;;61.67;25.97;;;-1.20;99.90;;;;;;5018697;28;20046;-72
2023/02/09 00:21:05;;;;;;;61.58;29.80;;;-1.10;99.90;;;;;;5025032;28;20784;-72
2023/02/09 00:23:32;;;;;;;60.78;27.75;;;-1.30;99.90;;;;;;5008106;28;20049;-72
2023/02/09 00:26:02;;;;;;;60.90;28.13;;;-1.20;99.90;;;;;;5030069;28;20411;-71
2023/02/09 00:28:28;;;;;;;67.35;29.95;;;-1.20;99.90;;;;;;5022563;28;20096;-72
2023/02/09 00:30:54;;;;;;;62.10;28.65;;;-1.20;99.90;;;;;;5007678;28;20143;-71
2023/02/09 00:33:19;;;;;;;65.95;28.70;;;-1.40;99.90;;;;;;5024779;28;20103;-72
2023/02/09 00:35:45;;;;;;;60.65;29.25;;;-1.40;99.90;;;;;;5024683;28;20060;-73
2023/02/09 00:38:11;;;;;;;62.67;27.77;;;-1.40;99.90;;;;;;5004321;28;20047;-73
2023/02/09 00:40:39;;;;;;;58.60;27.20;;;-1.40;99.90;;;;;;5029194;28;20549;-72
2023/02/09 00:43:04;;;;;;;67.10;29.20;;;-1.50;99.90;;;;;;5021847;28;20505;-72
2023/02/09 00:45:30;;;;;;;57.38;28.02;;;-1.50;99.90;;;;;;5024121;28;20081;-72
2023/02/09 00:47:56;;;;;;;63.97;30.77;;;-1.40;99.90;;;;;;5001303;28;20099;-72
2023/02/09 00:50:22;;;;;;;62.10;29.55;;;-1.60;99.90;;;;;;5029753;28;20045;-72
2023/02/09 00:52:48;;;;;;;60.40;28.42;;;-1.50;99.90;;;;;;5020926;28;20065;-72
2023/02/09 00:55:14;;;;;;;62.30;29.02;;;-1.50;99.90;;;;;;5019153;28;20676;-71
2023/02/09 00:57:40;;;;;;;65.30;29.92;;;-1.60;99.90;;;;;;5011222;28;20050;-71
2023/02/09 01:00:07;;;;;;;61.80;28.73;;;-1.50;99.90;;;;;;5007171;28;20049;-72
2023/02/09 01:02:33;;;;;;;63.45;29.70;;;-1.50;99.90;;;;;;5027237;28;20042;-72
2023/02/09 01:04:58;;;;;;;62.15;29.05;;;-1.50;99.90;;;;;;5023200;28;20057;-71
2023/02/09 01:07:24;;;;;;;69.60;31.23;;;-1.60;99.90;;;;;;5018406;28;20052;-72
2023/02/09 01:09:50;;;;;;;67.38;30.75;;;-1.60;99.90;;;;;;5021291;28;20049;-72
2023/02/09 01:12:16;;;;;;;66.15;29.23;;;-1.50;99.90;;;;;;4996217;28;20385;-72
2023/02/09 01:14:41;;;;;;;64.40;30.48;;;-1.60;99.90;;;;;;5009350;28;20081;-72
2023/02/09 01:17:07;;;;;;;61.95;29.08;;;-1.60;99.90;;;;;;5045638;28;20053;-71
2023/02/09 01:19:35;;;;;;;63.08;26.88;;;-1.60;99.90;;;;;;5027071;28;20081;-72
2023/02/09 01:22:01;;;;;;;62.00;28.48;;;-1.80;99.90;;;;;;5030106;28;20111;-72
2023/02/09 01:24:26;;;;;;;64.72;29.73;;;-1.80;99.90;;;;;;5020161;28;20045;-72
2023/02/09 01:26:52;;;;;;;67.90;31.45;;;-1.90;99.90;;;;;;5027897;28;20076;-72
2023/02/09 01:29:18;;;;;;;58.40;29.15;;;-2.00;99.90;;;;;;5008803;28;20551;-72
2023/02/09 01:31:45;;;;;;;55.97;28.27;;;-1.90;99.90;;;;;;5025190;28;20056;-72
2023/02/09 01:34:15;;;;;;;64.70;29.90;;;-1.80;99.90;;;;;;5019525;28;20056;-72
2023/02/09 01:36:40;;;;;;;58.63;28.63;;;-1.70;99.90;;;;;;4986761;28;20789;-71
2023/02/09 01:39:08;;;;;;;63.00;30.33;;;-1.80;99.90;;;;;;4988826;28;20045;-72
2023/02/09 01:41:34;;;;;;;64.33;30.17;;;-1.90;99.90;;;;;;5035670;28;20046;-72
2023/02/09 01:44:04;;;;;;;62.90;29.88;;;-1.90;99.90;;;;;;5003622;28;20304;-72
2023/02/09 01:46:34;;;;;;;66.82;30.98;;;-2.00;99.90;;;;;;5021502;28;20096;-71
2023/02/09 01:49:06;;;;;;;64.00;30.00;;;-1.90;99.90;;;;;;5039785;28;20374;-72
2023/02/09 01:51:38;;;;;;;67.28;31.27;;;-1.80;99.90;;;;;;5018193;28;20042;-72
2023/02/09 01:54:06;;;;;;;66.22;30.67;;;-2.00;99.90;;;;;;5028632;28;20114;-72
2023/02/09 01:56:32;;;;;;;58.88;28.20;;;-2.00;99.90;;;;;;5001144;28;20463;-72
2023/02/09 01:58:58;;;;;;;68.72;30.17;;;-2.20;99.90;;;;;;5024934;28;20068;-72
2023/02/09 02:01:24;;;;;;;64.88;29.75;;;-2.30;99.90;;;;;;5009768;28;20053;-72
2023/02/09 02:03:50;;;;;;;62.08;29.85;;;-2.20;99.90;;;;;;5018344;28;20053;-72
2023/02/09 02:06:16;;;;;;;63.85;28.40;;;-2.40;99.90;;;;;;5008833;28;20073;-72
2023/02/09 02:08:50;;;;;;;65.18;30.50;;;-2.30;99.90;;;;;;5009250;28;20124;-72
2023/02/09 02:11:16;;;;;;;68.03;31.92;;;-2.20;99.90;;;;;;5000597;28;20046;-72
2023/02/09 02:13:42;;;;;;;68.40;29.98;;;-2.20;99.90;;;;;;5031323;28;20057;-71
2023/02/09 02:16:13;;;;;;;68.05;30.33;;;-2.30;99.90;;;;;;5026650;28;20091;-71
2023/02/09 02:19:08;;;;;;;64.28;29.42;;;-2.20;99.90;;;;;;5041513;28;20049;-72
2023/02/09 02:21:39;;;;;;;64.25;30.33;;;-2.30;99.90;;;;;;5037529;28;20481;-71
2023/02/09 02:24:11;;;;;;;67.50;29.63;;;-2.50;99.90;;;;;;5023681;28;20132;-71
2023/02/09 02:26:44;;;;;;;68.00;32.10;;;-2.40;99.90;;;;;;5030147;28;20107;-71
2023/02/09 02:29:47;;;;;;;70.15;30.45;;;-2.60;99.90;;;;;;5048085;28;20088;-72
2023/02/09 02:32:22;;;;;;;68.65;30.48;;;-2.40;99.90;;;;;;5029201;28;20083;-72
2023/02/09 02:34:52;;;;;;;62.90;29.80;;;-2.40;99.90;;;;;;5027734;28;20110;-72
2023/02/09 02:37:40;;;;;;;61.78;29.27;;;-2.40;99.90;;;;;;5026194;28;20439;-71
2023/02/09 02:40:11;;;;;;;64.13;30.65;;;-2.50;99.90;;;;;;5027372;28;20073;-72
2023/02/09 02:42:54;;;;;;;67.00;29.45;;;-2.50;99.90;;;;;;5059823;28;20120;-72
2023/02/09 02:45:42;;;;;;;71.72;30.40;;;-2.70;99.90;;;;;;5051651;28;20051;-71
2023/02/09 02:48:19;;;;;;;63.88;27.40;;;-2.60;99.90;;;;;;5015256;28;20099;-72
2023/02/09 02:50:52;;;;;;;64.15;28.90;;;-2.60;99.90;;;;;;5027270;28;20131;-71
2023/02/09 02:53:17;;;;;;;60.65;27.08;;;-2.70;99.90;;;;;;5022298;28;20052;-71
2023/02/09 02:55:43;;;;;;;60.38;28.08;;;-2.70;99.90;;;;;;5011176;28;20044;-71
2023/02/09 02:58:10;;;;;;;63.03;27.45;;;-2.70;99.90;;;;;;5027893;28;20052;-71
2023/02/09 03:00:42;;;;;;;60.95;27.48;;;-2.80;99.90;;;;;;5026532;28;20057;-71
2023/02/09 03:03:13;;;;;;;62.22;28.55;;;-2.60;99.90;;;;;;5014556;28;20075;-71
2023/02/09 03:05:39;;;;;;;63.88;28.75;;;-2.60;99.90;;;;;;5011523;28;20049;-72
2023/02/09 03:08:05;;;;;;;54.50;26.00;;;-2.70;99.90;;;;;;5026105;28;20045;-71
2023/02/09 03:10:33;;;;;;;64.32;27.30;;;-2.60;99.90;;;;;;5014117;28;20050;-72
2023/02/09 03:13:19;;;;;;;57.88;28.15;;;-2.50;99.90;;;;;;5030853;28;20071;-71
2023/02/09 03:16:04;;;;;;;59.50;28.52;;;-2.50;99.90;;;;;;5023480;28;20056;-72
2023/02/09 03:19:10;;;;;;;60.97;26.30;;;-2.90;99.90;;;;;;5019590;28;20050;-71
2023/02/09 03:21:36;;;;;;;62.30;28.00;;;-2.90;99.90;;;;;;5042220;28;20137;-71
2023/02/09 03:24:21;;;;;;;56.83;26.90;;;-2.80;99.90;;;;;;5020209;28;20125;-71
2023/02/09 03:27:18;;;;;;;64.00;28.10;;;-2.70;99.90;;;;;;5002928;28;20056;-72
2023/02/09 03:29:45;;;;;;;61.15;27.95;;;-2.80;99.90;;;;;;5005019;28;20041;-72
2023/02/09 03:32:10;;;;;;;61.92;26.65;;;-2.80;99.90;;;;;;5019234;28;20509;-72
2023/02/09 03:34:37;;;;;;;55.10;27.52;;;-2.70;99.90;;;;;;5031260;28;20072;-72
2023/02/09 03:37:03;;;;;;;59.83;28.83;;;-2.70;99.90;;;;;;5014469;28;20037;-72
2023/02/09 03:39:29;;;;;;;61.10;29.58;;;-2.70;99.90;;;;;;5005237;28;20095;-72
2023/02/09 03:41:55;;;;;;;61.92;26.88;;;-2.90;99.90;;;;;;5031919;28;20041;-72
2023/02/09 03:44:26;;;;;;;57.45;26.40;;;-2.80;99.90;;;;;;5013922;28;20041;-72
2023/02/09 03:46:59;;;;;;;64.63;29.48;;;-3.10;99.90;;;;;;5018477;28;20057;-72
2023/02/09 03:49:28;;;;;;;58.90;27.35;;;-3.10;99.90;;;;;;4991131;28;20045;-72
2023/02/09 03:51:54;;;;;;;62.08;29.85;;;-3.00;99.90;;;;;;5042068;28;20107;-72
2023/02/09 03:54:20;;;;;;;60.55;25.50;;;-3.10;99.90;;;;;;5029543;28;20063;-72
2023/02/09 03:56:46;;;;;;;56.33;25.10;;;-3.20;99.90;;;;;;5015120;28;20080;-72
2023/02/09 03:59:12;;;;;;;54.08;25.50;;;-2.80;99.90;;;;;;4976876;28;20095;-72
2023/02/09 04:01:37;;;;;;;58.03;25.10;;;-2.60;99.90;;;;;;4999627;28;20048;-72
2023/02/09 04:04:03;;;;;;;51.63;23.52;;;-2.60;99.90;;;;;;5024529;28;20037;-72
2023/02/09 04:06:30;;;;;;;58.03;26.08;;;-2.60;99.90;;;;;;5024359;28;20103;-72
2023/02/09 04:08:57;;;;;;;60.05;24.92;;;-2.60;99.90;;;;;;5007749;28;20045;-72
2023/02/09 04:11:23;;;;;;;60.55;26.05;;;-2.70;99.90;;;;;;5021413;28;20348;-72
2023/02/09 04:13:49;;;;;;;62.00;26.58;;;-2.70;99.90;;;;;;4984274;28;20430;-72
2023/02/09 04:16:16;;;;;;;59.33;27.00;;;-2.80;99.90;;;;;;5025917;28;20045;-72
2023/02/09 04:18:42;;;;;;;59.17;27.02;;;-2.70;99.90;;;;;;5043197;28;20135;-72
2023/02/09 04:21:08;;;;;;;59.97;27.08;;;-2.70;99.90;;;;;;5005549;28;20049;-73
2023/02/09 04:23:34;;;;;;;56.35;26.80;;;-2.70;99.90;;;;;;5026704;28;20284;-72
2023/02/09 04:26:00;;;;;;;52.25;23.40;;;-2.70;99.90;;;;;;5022654;28;20125;-72
2023/02/09 04:28:26;;;;;;;55.92;25.58;;;-2.60;99.90;;;;;;5013553;28;20530;-73
2023/02/09 04:30:53;;;;;;;57.35;27.50;;;-2.80;99.90;;;;;;5020967;28;20077;-73
2023/02/09 04:33:19;;;;;;;65.03;28.70;;;-2.80;99.90;;;;;;5001759;28;20598;-72
2023/02/09 04:35:47;;;;;;;51.00;24.20;;;-2.80;99.90;;;;;;4986097;28;20529;-72
2023/02/09 04:38:18;;;;;;;50.92;24.48;;;-2.80;99.90;;;;;;5014454;28;20504;-72
2023/02/09 04:40:48;;;;;;;55.13;24.70;;;-2.80;99.90;;;;;;4982222;28;20773;-72
2023/02/09 04:43:13;;;;;;;50.63;23.58;;;-3.10;99.90;;;;;;5019044;28;20099;-72
2023/02/09 04:45:39;;;;;;;51.83;23.85;;;-3.00;99.90;;;;;;5001003;28;20046;-72
2023/02/09 04:48:05;;;;;;;53.55;23.58;;;-2.90;99.90;;;;;;5017781;28;20533;-73
2023/02/09 04:50:33;;;;;;;49.63;23.63;;;-2.90;99.90;;;;;;5004127;28;20124;-72
2023/02/09 04:52:59;;;;;;;53.53;25.25;;;-2.90;99.90;;;;;;5022383;28;20045;-72
2023/02/09 04:55:25;;;;;;;59.95;26.10;;;-2.80;99.90;;;;;;5007653;28;20107;-72
2023/02/09 05:00:35;;;;;;;57.97;25.40;;;-2.90;99.90;;;;;;5017360;28;20476;-72
2023/02/09 05:03:01;;;;;;;55.53;23.77;;;-3.00;99.90;;;;;;5013627;28;20099;-72
2023/02/09 05:05:27;;;;;;;56.95;24.90;;;-3.00;99.90;;;;;;5014149;28;20045;-72
2023/02/09 05:07:53;;;;;;;48.47;22.30;;;-3.10;99.90;;;;;;5020789;28;20045;-72
2023/02/09 05:10:19;;;;;;;50.50;23.30;;;-3.20;99.90;;;;;;5024046;28;20494;-72
2023/02/09 05:12:45;;;;;;;54.67;23.65;;;-3.30;99.90;;;;;;5024379;28;20120;-72
2023/02/09 05:15:10;;;;;;;51.35;23.35;;;-3.20;99.90;;;;;;5000906;28;20061;-74
2023/02/09 05:17:36;;;;;;;54.53;23.33;;;-3.20;99.90;;;;;;5017666;28;20481;-72
2023/02/09 05:20:02;;;;;;;49.20;21.80;;;-3.10;99.90;;;;;;5017441;28;20454;-72
2023/02/09 05:22:28;;;;;;;54.90;22.77;;;-3.10;99.90;;;;;;5011194;28;20045;-72
2023/02/09 05:24:53;;;;;;;50.40;23.08;;;-3.20;99.90;;;;;;5028939;28;20123;-72
2023/02/09 05:27:19;;;;;;;51.60;23.05;;;-3.10;99.90;;;;;;5019646;28;20041;-72
2023/02/09 05:29:45;;;;;;;48.83;22.50;;;-3.00;99.90;;;;;;5005906;28;20462;-72
2023/02/09 05:32:10;;;;;;;53.00;23.17;;;-3.00;99.90;;;;;;5018495;28;20131;-72
2023/02/09 05:34:36;;;;;;;48.45;21.60;;;-3.10;99.90;;;;;;5012970;28;20120;-72
2023/02/09 05:37:02;;;;;;;53.55;24.13;;;-3.00;99.90;;;;;;5016909;28;20121;-72
2023/02/09 05:39:28;;;;;;;49.03;22.02;;;-3.00;99.90;;;;;;5000375;28;20068;-73
2023/02/09 05:44:37;;;;;;;49.28;23.05;;;-3.00;99.90;;;;;;5020215;28;20056;-72
2023/02/09 05:47:03;;;;;;;50.60;23.05;;;-3.10;99.90;;;;;;5015322;28;20046;-72
2023/02/09 05:49:29;;;;;;;47.75;21.70;;;-3.10;99.90;;;;;;5018139;28;20048;-72
2023/02/09 05:51:55;;;;;;;48.10;20.27;;;-3.00;99.90;;;;;;5011335;28;20041;-72
2023/02/09 05:54:21;;;;;;;47.38;21.52;;;-3.00;99.90;;;;;;5010129;28;20065;-72
2023/02/09 05:56:48;;;;;;;48.20;22.02;;;-3.00;99.90;;;;;;5011774;28;20077;-73
2023/02/09 05:59:13;;;;;;;45.90;21.42;;;-3.00;99.90;;;;;;5035162;28;20045;-72
2023/02/09 06:01:39;;;;;;;54.17;21.83;;;-3.00;99.90;;;;;;5034647;28;20060;-72
2023/02/09 06:04:05;;;;;;;45.17;19.55;;;-3.00;99.90;;;;;;5011117;28;20191;-73
2023/02/09 06:06:31;;;;;;;45.80;20.90;;;-3.10;99.90;;;;;;5004624;28;20049;-72
2023/02/09 06:08:56;;;;;;;46.90;20.60;;;-3.10;99.90;;;;;;5003971;28;20344;-72
2023/02/09 06:11:22;;;;;;;47.40;21.17;;;-3.00;99.90;;;;;;5009123;28;20050;-72
2023/02/09 06:13:48;;;;;;;44.85;19.90;;;-3.00;99.90;;;;;;5042356;28;20095;-72
2023/02/09 06:16:14;;;;;;;45.35;19.75;;;-3.10;99.90;;;;;;5021948;28;20052;-72
2023/02/09 06:18:39;;;;;;;51.20;22.63;;;-3.00;99.90;;;;;;5027204;28;20053;-72
2023/02/09 06:21:05;;;;;;;47.97;21.05;;;-3.00;99.90;;;;;;5010330;28;20079;-73
2023/02/09 06:23:31;;;;;;;47.42;20.35;;;-3.00;99.90;;;;;;5024587;28;20052;-73
2023/02/09 06:25:57;;;;;;;48.58;22.17;;;-3.10;99.90;;;;;;5026241;28;20060;-72
2023/02/09 06:28:22;;;;;;;45.13;21.67;;;-3.10;99.90;;;;;;5010537;28;20461;-72
2023/02/09 06:30:52;;;;;;;44.45;21.35;;;-3.10;99.90;;;;;;5006776;28;20128;-72
2023/02/09 06:33:18;;;;;;;44.80;20.75;;;-3.10;99.90;;;;;;4987273;28;20050;-72
2023/02/09 06:35:44;;;;;;;50.58;20.60;;;-3.00;99.90;;;;;;5014152;28;20656;-72
2023/02/09 06:38:09;;;;;;;46.80;20.98;;;-3.10;99.90;;;;;;5023942;28;20048;-72
2023/02/09 06:40:35;;;;;;;46.58;20.88;;;-3.10;99.90;;;;;;5028777;28;20066;-72
2023/02/09 06:43:01;;;;;;;46.28;20.25;;;-3.10;99.90;;;;;;5015038;28;20124;-72
2023/02/09 06:45:27;;;;;;;50.75;23.35;;;-3.10;99.90;;;;;;5022514;28;20052;-72
2023/02/09 06:47:52;;;;;;;44.90;21.38;;;-3.00;99.90;;;;;;5010383;28;20118;-72
2023/02/09 06:50:18;;;;;;;44.90;21.13;;;-2.90;99.90;;;;;;5010288;28;20136;-73
2023/02/09 06:52:44;;;;;;;49.90;22.05;;;-3.00;99.90;;;;;;5024074;28;20092;-72
2023/02/09 06:55:10;;;;;;;45.35;20.10;;;-2.90;99.90;;;;;;5016117;28;20064;-72
2023/02/09 06:57:36;;;;;;;44.70;20.50;;;-2.90;99.90;;;;;;5027819;28;20045;-72
2023/02/09 07:00:03;;;;;;;45.25;19.60;;;-3.00;99.90;;;;;;5008516;28;20057;-72
2023/02/09 07:02:29;;;;;;;43.67;21.42;;;-2.90;99.90;;;;;;5031192;28;20041;-72
2023/02/09 07:04:56;;;;;;;43.50;20.15;;;-2.90;99.90;;;;;;5021642;28;20047;-73
2023/02/09 07:07:22;;;;;;;48.23;21.30;;;-2.80;99.90;;;;;;5029786;28;20042;-72
2023/02/09 07:09:48;;;;;;;40.22;18.38;;;-2.80;99.90;;;;;;5013269;28;20350;-72
2023/02/09 07:12:13;;;;;;;43.88;20.38;;;-2.70;99.90;;;;;;5043958;28;20072;-72
2023/02/09 07:14:39;;;;;;;42.58;20.27;;;-2.70;99.90;;;;;;5002526;28;20084;-72
2023/02/09 07:17:05;;;;;;;39.97;18.80;;;-2.80;99.90;;;;;;5019481;28;20092;-73
2023/02/09 07:19:31;;;;;;;38.30;18.20;;;-2.80;99.90;;;;;;5019066;28;20046;-73
2023/02/09 07:21:57;;;;;;;46.05;19.77;;;-2.80;99.90;;;;;;5009304;28;20127;-73
2023/02/09 07:24:23;;;;;;;41.83;18.90;;;-2.70;99.90;;;;;;5035700;28;20069;-73
2023/02/09 07:26:49;;;;;;;41.90;18.25;;;-2.70;99.90;;;;;;5041083;28;20091;-73
2023/02/09 07:29:15;;;;;;;41.88;18.83;;;-2.70;99.90;;;;;;5020178;28;20045;-73
2023/02/09 07:31:41;;;;;;;42.03;19.38;;;-2.60;99.90;;;;;;4991968;28;20492;-72
2023/02/09 07:34:06;;;;;;;42.75;19.90;;;-2.80;99.90;;;;;;4996743;28;20053;-73
2023/02/09 07:36:32;;;;;;;41.40;18.92;;;-2.60;99.90;;;;;;5027312;28;20046;-73
2023/02/09 07:38:58;;;;;;;40.30;18.80;;;-2.60;99.90;;;;;;5022727;28;20125;-73
2023/02/09 07:41:24;;;;;;;45.10;18.77;;;-2.60;99.90;;;;;;5013451;28;20058;-72
2023/02/09 07:43:50;;;;;;;40.67;19.58;;;-2.60;99.90;;;;;;5022205;28;20038;-73
2023/02/09 07:46:17;;;;;;;46.78;19.98;;;-2.30;99.90;;;;;;5004461;28;20096;-72
2023/02/09 07:48:43;;;;;;;40.83;19.23;;;-2.30;99.90;;;;;;4996571;28;20079;-74
2023/02/09 07:51:17;;;;;;;38.50;17.75;;;-2.20;99.90;;;;;;5036148;28;20041;-75
2023/02/09 07:53:43;;;;;;;39.80;18.85;;;-2.20;99.90;;;;;;5025218;28;20099;-72
2023/02/09 07:56:08;;;;;;;33.53;15.90;;;-2.10;99.90;;;;;;5028774;28;20063;-72
2023/02/09 07:58:34;;;;;;;36.55;17.20;;;-2.00;99.90;;;;;;5014534;28;20119;-72
2023/02/09 08:01:07;;;;;;;38.42;15.98;;;-2.10;99.90;;;;;;5006757;28;20111;-72
2023/02/09 08:03:34;;;;;;;36.63;17.00;;;-2.00;99.90;;;;;;5034387;28;20037;-73
2023/02/09 08:06:02;;;;;;;36.30;16.52;;;-2.00;99.90;;;;;;5012407;28;20042;-73
2023/02/09 08:08:27;;;;;;;32.42;16.20;;;-1.90;99.90;;;;;;4979733;28;20104;-73
2023/02/09 08:10:54;;;;;;;33.30;15.88;;;-1.70;99.90;;;;;;5010388;28;20054;-73
2023/02/09 08:13:19;;;;;;;40.40;16.35;;;-1.70;99.90;;;;;;4996523;28;20131;-73
2023/02/09 08:15:52;;;;;;;31.05;15.07;;;-1.60;99.90;;;;;;5008606;28;20053;-73
2023/02/09 08:18:20;;;;;;;33.53;15.57;;;-1.50;99.90;;;;;;5028632;28;20050;-72
2023/02/09 08:20:46;;;;;;;;;;;-1.50;99.90;;;;;;5031022;28;20113;-72
2023/02/09 08:23:23;;;;;;;31.23;15.10;;;-1.40;99.90;;;;;;5003575;28;20001;-72
2023/02/09 08:25:50;;;;;;;36.53;16.23;;;-1.40;99.90;;;;;;5029712;28;20051;-72
2023/02/09 08:28:19;;;;;;;37.67;16.85;;;-1.50;99.90;;;;;;5000339;28;20470;-72
2023/02/09 08:30:45;;;;;;;31.65;15.18;;;-1.30;99.90;;;;;;5040649;28;20045;-72
2023/02/09 08:33:11;;;;;;;36.42;17.77;;;-1.20;99.90;;;;;;5022147;28;20501;-72
2023/02/09 08:35:37;;;;;;;35.78;17.13;;;-1.10;99.90;;;;;;5007758;28;20053;-72
2023/02/09 08:38:02;;;;;;;33.30;16.30;;;-1.00;99.90;;;;;;5030789;28;20041;-72
2023/02/09 08:40:29;;;;;;;33.28;16.17;;;-1.10;99.90;;;;;;4996015;28;20089;-72
2023/02/09 08:42:55;;;;;;;38.25;18.38;;;-1.00;99.90;;;;;;5028448;28;20816;-72
2023/02/09 08:45:21;;;;;;;36.00;16.42;;;-0.90;99.90;;;;;;4990498;28;20041;-72
2023/02/09 08:47:46;;;;;;;32.75;15.98;;;-0.90;99.90;;;;;;4999434;28;20156;-72
2023/02/09 08:50:12;;;;;;;28.73;15.25;;;-0.90;99.90;;;;;;5023930;28;20152;-71
2023/02/09 08:52:39;;;;;;;34.75;15.63;;;-0.70;99.90;;;;;;5020083;28;20484;-73
2023/02/09 08:55:05;;;;;;;28.88;14.40;;;-0.60;99.90;;;;;;5011759;28;20081;-72
2023/02/09 08:57:30;;;;;;;30.50;14.88;;;-0.60;99.90;;;;;;5024830;28;20497;-72
2023/02/09 08:59:56;;;;;;;29.33;14.98;;;-0.60;99.90;;;;;;5026233;28;20162;-72
2023/02/09 09:02:22;;;;;;;27.40;13.85;;;-0.40;99.90;;;;;;5018055;28;20068;-72
2023/02/09 09:04:48;;;;;;;28.65;13.02;;;-0.30;99.90;;;;;;5004040;28;20071;-72
2023/02/09 09:07:13;;;;;;;27.00;12.88;;;-0.20;99.90;;;;;;5007907;28;20049;-72
2023/02/09 09:09:39;;;;;;;25.40;12.27;;;-0.10;99.90;;;;;;5014382;28;20038;-72
2023/02/09 09:12:05;;;;;;;29.20;12.95;;;0.00;99.90;;;;;;5020050;28;20094;-73
2023/02/09 09:14:31;;;;;;;24.40;12.20;;;0.30;99.90;;;;;;5005205;28;20366;-74
2023/02/09 09:16:57;;;;;;;23.00;11.57;;;0.40;99.90;;;;;;5034200;28;20073;-73
2023/02/09 09:19:23;;;;;;;21.85;11.00;;;0.50;99.90;;;;;;4990811;28;20052;-73
2023/02/09 09:21:49;;;;;;;22.88;10.15;;;0.50;99.90;;;;;;5020158;28;20110;-72
2023/02/09 09:24:15;;;;;;;24.45;12.65;;;0.60;99.90;;;;;;5014960;28;20041;-73
2023/02/09 09:26:41;;;;;;;20.83;10.10;;;0.80;99.90;;;;;;5030726;28;20071;-72
2023/02/09 09:29:08;;;;;;;20.40;9.90;;;0.80;99.90;;;;;;5010940;28;20479;-73
2023/02/09 09:31:34;;;;;;;19.27;10.23;;;1.00;99.90;;;;;;5033866;28;20077;-73
2023/02/09 09:34:00;;;;;;;21.40;10.55;;;1.10;99.90;;;;;;4999368;28;20082;-73
2023/02/09 09:36:25;;;;;;;20.45;9.50;;;1.30;98.50;;;;;;5018144;28;20132;-72
2023/02/09 09:38:51;;;;;;;18.90;9.30;;;1.20;96.50;;;;;;5023754;28;20056;-73
2023/02/09 09:41:44;;;;;;;23.13;9.60;;;1.20;96.60;;;;;;5019350;28;20057;-72
2023/02/09 09:44:23;;;;;;;18.27;9.55;;;1.40;95.60;;;;;;5021108;28;20041;-72
2023/02/09 09:46:50;;;;;;;19.33;8.90;;;1.40;94.40;;;;;;5021841;28;20701;-73
2023/02/09 09:49:20;;;;;;;22.17;9.68;;;1.40;93.80;;;;;;4993563;28;20068;-73
2023/02/09 09:51:47;;;;;;;17.40;9.27;;;1.60;93.90;;;;;;5029726;28;20231;-72
2023/02/09 09:54:16;;;;;;;20.35;10.35;;;1.60;93.40;;;;;;5017113;28;20073;-75
2023/02/09 09:56:42;;;;;;;20.27;9.55;;;1.60;93.00;;;;;;5046354;28;20439;-76
2023/02/09 09:59:18;;;;;;;23.92;9.85;;;1.60;92.30;;;;;;5015940;28;20045;-76
2023/02/09 10:01:44;;;;;;;18.60;8.95;;;1.80;92.30;;;;;;5033334;28;20054;-75
2023/02/09 10:04:13;;;;;;;22.77;10.07;;;1.90;91.50;;;;;;5035199;28;20048;-75
2023/02/09 10:06:40;;;;;;;22.08;9.13;;;2.20;98.30;;;;;;4992617;28;20056;-77
2023/02/09 10:09:23;;;;;;;18.77;9.00;;;2.40;99.90;;;;;;5018726;28;20451;-75
2023/02/09 10:12:04;;;;;;;19.92;9.63;;;3.10;98.50;;;;;;5025393;28;20116;-76
2023/02/09 10:14:29;;;;;;;18.58;9.27;;;3.00;93.60;;;;;;4991344;28;20069;-75
2023/02/09 10:16:55;;;;;;;17.27;8.63;;;3.00;93.60;;;;;;5009228;28;20046;-76
2023/02/09 10:19:24;;;;;;;16.85;8.07;;;2.90;93.30;;;;;;5002441;28;20093;-76
2023/02/09 10:21:50;;;;;;;18.88;9.43;;;2.90;88.90;;;;;;5014423;28;20052;-76
2023/02/09 10:24:21;;;;;;;22.80;9.70;;;2.80;84.70;;;;;;4977603;28;20041;-75
2023/02/09 10:27:09;;;;;;;19.63;8.95;;;3.00;84.80;;;;;;5022120;28;20049;-76
2023/02/09 10:29:35;;;;;;;19.70;9.77;;;2.80;82.20;;;;;;5034736;28;20332;-75
2023/02/09 10:32:13;;;;;;;18.60;8.48;;;2.70;82.50;;;;;;5024574;28;20045;-74
2023/02/09 10:34:41;;;;;;;19.30;9.27;;;2.70;81.70;;;;;;5031437;28;20060;-74
2023/02/09 10:37:19;;;;;;;17.20;10.30;;;2.60;81.00;;;;;;5028928;28;20076;-74
2023/02/09 10:39:47;;;;;;;19.00;9.13;;;2.50;80.30;;;;;;5031500;28;20056;-77
2023/02/09 10:42:17;;;;;;;18.23;8.43;;;2.60;80.40;;;;;;5015049;28;20046;-76
2023/02/09 10:44:49;;;;;;;21.60;8.88;;;2.60;79.60;;;;;;5010744;28;20042;-77
2023/02/09 10:47:18;;;;;;;17.63;9.27;;;2.70;80.60;;;;;;5041688;28;20091;-74
2023/02/09 10:50:04;;;;;;;17.67;9.00;;;2.80;79.80;;;;;;5025392;28;20037;-75
2023/02/09 10:52:32;;;;;;;18.65;9.55;;;2.80;79.80;;;;;;5016219;28;20732;-77
2023/02/09 10:55:02;;;;;;;20.17;9.70;;;2.80;79.00;;;;;;5006884;28;20046;-76
2023/02/09 10:57:29;;;;;;;17.80;9.35;;;2.80;76.30;;;;;;4996983;28;20049;-76
2023/02/09 10:59:57;;;;;;;22.13;9.80;;;2.80;78.80;;;;;;5015407;28;20045;-76
2023/02/09 11:02:40;;;;;;;18.52;9.50;;;3.00;77.50;;;;;;5023240;28;20069;-76
2023/02/09 11:05:21;;;;;;;17.10;8.77;;;3.10;76.00;;;;;;5040155;28;20466;-75
2023/02/09 11:07:58;;;;;;;20.33;9.35;;;3.40;75.40;;;;;;5017984;28;20108;-75
2023/02/09 11:10:24;;;;;;;18.73;9.32;;;3.90;71.50;;;;;;5034019;28;20038;-75
2023/02/09 11:12:50;;;;;;;16.40;9.00;;;4.40;68.40;;;;;;5014711;28;20052;-76
2023/02/09 11:15:20;;;;;;;16.92;9.10;;;5.50;65.40;;;;;;5034407;28;20541;-75
2023/02/09 11:17:57;;;;;;;16.40;8.88;;;6.10;59.80;;;;;;4994957;28;20045;-75
2023/02/09 11:20:45;;;;;;;19.08;8.82;;;7.00;55.10;;;;;;5036210;28;20425;-77
2023/02/09 11:23:43;;;;;;;17.98;9.60;;;6.20;55.10;;;;;;5033471;28;20434;-76
2023/02/09 11:26:14;;;;;;;17.17;8.43;;;5.90;57.20;;;;;;5023669;28;20056;-77
2023/02/09 11:28:40;;;;;;;22.77;10.82;;;5.30;57.50;;;;;;5018485;28;20385;-75
2023/02/09 11:31:23;;;;;;;16.90;8.50;;;5.20;57.50;;;;;;5043720;28;20128;-74
2023/02/09 11:34:23;;;;;;;17.95;9.25;;;5.50;56.70;;;;;;5035848;28;20068;-76
2023/02/09 11:37:34;;;;;;;17.02;8.45;;;6.10;56.80;;;;;;5021532;28;20544;-76
2023/02/09 11:40:06;;;;;;;17.40;10.20;;;5.80;56.80;;;;;;4944068;28;20045;-75
2023/02/09 11:42:44;;;;;;;17.42;10.02;;;5.20;57.20;;;;;;5058348;28;20038;-77
2023/02/09 11:45:15;;;;;;;19.73;9.45;;;5.70;56.80;;;;;;5040802;28;20125;-76
2023/02/09 11:48:08;;;;;;;25.65;11.23;;;5.50;57.00;;;;;;4989326;28;20049;-76
2023/02/09 11:50:43;;;;;;;19.00;9.38;;;5.90;57.90;;;;;;5057169;28;20050;-76
2023/02/09 11:53:21;;;;;;;15.75;8.80;;;5.10;56.50;;;;;;5011190;28;20068;-77
2023/02/09 11:55:53;;;;;;;15.05;9.23;;;5.80;56.90;;;;;;5030099;28;20052;-77
2023/02/09 11:58:30;;;;;;;17.02;9.05;;;6.20;55.10;;;;;;5034155;28;20355;-77
2023/02/09 12:01:03;;;;;;;16.70;8.40;;;6.40;54.20;;;;;;5018542;28;20085;-78
2023/02/09 12:03:29;;;;;;;18.52;9.90;;;6.80;53.90;;;;;;5003213;28;20478;-76
2023/02/09 12:05:55;;;;;;;16.02;8.63;;;5.40;55.80;;;;;;5027495;28;20041;-77
2023/02/09 12:08:27;;;;;;;18.90;9.77;;;5.50;56.90;;;;;;5018643;28;20056;-76
2023/02/09 12:11:13;;;;;;;21.27;10.00;;;4.80;58.60;;;;;;5031516;28;20049;-76
2023/02/09 12:13:48;;;;;;;17.48;10.07;;;5.10;57.30;;;;;;5035490;28;20794;-77
2023/02/09 12:16:16;;;;;;;16.55;9.27;;;5.40;56.40;;;;;;5021569;28;20045;-76
2023/02/09 12:18:42;;;;;;;18.33;9.65;;;4.60;58.50;;;;;;5031818;28;20041;-76
2023/02/09 12:21:08;;;;;;;16.75;8.95;;;5.00;58.20;;;;;;5007660;28;20045;-75
2023/02/09 12:23:37;;;;;;;16.58;9.07;;;4.70;58.00;;;;;;5009580;28;20559;-76
2023/02/09 12:26:15;;;;;;;17.58;8.93;;;5.30;57.80;;;;;;5005198;28;20034;-75
2023/02/09 12:29:06;;;;;;;19.20;9.20;;;5.50;56.20;;;;;;5020568;28;20045;-76
2023/02/09 12:32:04;;;;;;;20.17;10.02;;;6.10;56.20;;;;;;5031663;28;20521;-76
2023/02/09 12:34:41;;;;;;;16.90;9.45;;;7.50;50.80;;;;;;5001965;28;20818;-76
2023/02/09 12:37:13;;;;;;;16.40;9.80;;;7.60;50.40;;;;;;5006756;28;20046;-74
2023/02/09 12:40:08;;;;;;;21.25;10.25;;;7.30;52.20;;;;;;5025895;28;20719;-76
2023/02/09 12:42:41;;;;;;;19.10;9.57;;;7.50;51.60;;;;;;5022691;28;20463;-76
2023/02/09 12:45:39;;;;;;;20.05;10.70;;;7.20;51.40;;;;;;5023327;28;20048;-76
2023/02/09 12:48:08;;;;;;;22.10;11.60;;;7.10;51.30;;;;;;5032702;28;20150;-76
2023/02/09 12:50:43;;;;;;;21.48;11.00;;;6.90;53.00;;;;;;5026636;28;20041;-76